sensor_id;sensor_type;location;lat;lon;timestamp;P1;durP1;ratioP1;P2;durP2;ratioP2
69588;SDS011;56792;50.644;17.984;2022-09-21T00:01:41;7.20;;;3.70;;
69588;SDS011;56792;50.644;17.984;2022-09-21T00:04:11;7.80;;;3.90;;
69588;SDS011;56792;50.644;17.984;2022-09-21T00:06:40;7.40;;;4.20;;
69588;SDS011;56792;50.644;17.984;2022-09-21T00:09:10;8.80;;;3.70;;
69588;SDS011;56792;50.644;17.984;2022-09-21T00:11:39;7.50;;;4.00;;
69588;SDS011;56792;50.644;17.984;2022-09-21T00:14:11;8.40;;;3.80;;
69588;SDS011;56792;50.644;17.984;2022-09-21T00:16:42;6.60;;;3.30;;
69588;SDS011;56792;50.644;17.984;2022-09-21T00:19:11;5.90;;;3.60;;
69588;SDS011;56792;50.644;17.984;2022-09-21T00:21:43;7.00;;;3.60;;
69588;SDS011;56792;50.644;17.984;2022-09-21T00:24:12;7.40;;;3.80;;
69588;SDS011;56792;50.644;17.984;2022-09-21T00:26:41;6.60;;;4.10;;
69588;SDS011;56792;50.644;17.984;2022-09-21T00:29:11;7.20;;;4.20;;
69588;SDS011;56792;50.644;17.984;2022-09-21T00:31:40;8.30;;;4.20;;
69588;SDS011;56792;50.644;17.984;2022-09-21T00:34:10;6.90;;;3.80;;
69588;SDS011;56792;50.644;17.984;2022-09-21T00:36:40;6.70;;;4.00;;
69588;SDS011;56792;50.644;17.984;2022-09-21T00:39:09;6.60;;;4.10;;
69588;SDS011;56792;50.644;17.984;2022-09-21T00:41:39;7.90;;;4.30;;
69588;SDS011;56792;50.644;17.984;2022-09-21T00:44:24;7.90;;;3.80;;
69588;SDS011;56792;50.644;17.984;2022-09-21T00:47:02;7.00;;;4.10;;
69588;SDS011;56792;50.644;17.984;2022-09-21T00:49:35;7.30;;;4.50;;
69588;SDS011;56792;50.644;17.984;2022-09-21T00:52:06;6.60;;;3.90;;
69588;SDS011;56792;50.644;17.984;2022-09-21T00:54:41;6.50;;;4.00;;
69588;SDS011;56792;50.644;17.984;2022-09-21T00:57:18;7.30;;;4.00;;
69588;SDS011;56792;50.644;17.984;2022-09-21T00:59:54;6.50;;;3.90;;
69588;SDS011;56792;50.644;17.984;2022-09-21T01:02:25;7.00;;;4.00;;
69588;SDS011;56792;50.644;17.984;2022-09-21T01:04:55;6.80;;;4.10;;
69588;SDS011;56792;50.644;17.984;2022-09-21T01:07:27;7.90;;;4.10;;
69588;SDS011;56792;50.644;17.984;2022-09-21T01:10:02;7.30;;;3.70;;
69588;SDS011;56792;50.644;17.984;2022-09-21T01:12:45;8.20;;;4.40;;
69588;SDS011;56792;50.644;17.984;2022-09-21T01:15:32;7.00;;;4.20;;
69588;SDS011;56792;50.644;17.984;2022-09-21T01:18:12;6.00;;;4.10;;
69588;SDS011;56792;50.644;17.984;2022-09-21T01:21:09;7.80;;;4.30;;
69588;SDS011;56792;50.644;17.984;2022-09-21T01:30:21;6.70;;;3.80;;
69588;SDS011;56792;50.644;17.984;2022-09-21T01:32:55;8.60;;;5.10;;
69588;SDS011;56792;50.644;17.984;2022-09-21T01:35:33;7.80;;;4.60;;
69588;SDS011;56792;50.644;17.984;2022-09-21T01:38:08;8.30;;;5.10;;
69588;SDS011;56792;50.644;17.984;2022-09-21T01:40:44;8.30;;;4.30;;
69588;SDS011;56792;50.644;17.984;2022-09-21T01:43:20;10.00;;;5.00;;
69588;SDS011;56792;50.644;17.984;2022-09-21T01:45:55;9.70;;;4.90;;
69588;SDS011;56792;50.644;17.984;2022-09-21T01:48:31;8.70;;;5.60;;
69588;SDS011;56792;50.644;17.984;2022-09-21T01:51:06;10.00;;;5.40;;
69588;SDS011;56792;50.644;17.984;2022-09-21T01:53:39;8.30;;;5.20;;
69588;SDS011;56792;50.644;17.984;2022-09-21T01:56:14;9.50;;;5.50;;
69588;SDS011;56792;50.644;17.984;2022-09-21T01:58:51;7.70;;;4.60;;
69588;SDS011;56792;50.644;17.984;2022-09-21T02:04:41;11.10;;;5.40;;
69588;SDS011;56792;50.644;17.984;2022-09-21T02:07:11;10.60;;;5.60;;
69588;SDS011;56792;50.644;17.984;2022-09-21T02:09:42;8.80;;;5.20;;
69588;SDS011;56792;50.644;17.984;2022-09-21T02:12:13;11.30;;;6.50;;
69588;SDS011;56792;50.644;17.984;2022-09-21T02:14:43;9.60;;;5.10;;
69588;SDS011;56792;50.644;17.984;2022-09-21T02:17:25;10.50;;;5.80;;
69588;SDS011;56792;50.644;17.984;2022-09-21T02:20:08;10.80;;;6.30;;
69588;SDS011;56792;50.644;17.984;2022-09-21T02:22:58;10.60;;;6.40;;
69588;SDS011;56792;50.644;17.984;2022-09-21T02:25:40;11.00;;;6.30;;
69588;SDS011;56792;50.644;17.984;2022-09-21T02:28:27;11.50;;;6.60;;
69588;SDS011;56792;50.644;17.984;2022-09-21T02:31:11;11.40;;;6.40;;
69588;SDS011;56792;50.644;17.984;2022-09-21T02:33:55;12.30;;;7.00;;
69588;SDS011;56792;50.644;17.984;2022-09-21T02:36:32;13.00;;;7.20;;
69588;SDS011;56792;50.644;17.984;2022-09-21T02:39:15;12.60;;;7.30;;
69588;SDS011;56792;50.644;17.984;2022-09-21T02:41:53;12.60;;;7.30;;
69588;SDS011;56792;50.644;17.984;2022-09-21T02:44:31;12.60;;;7.30;;
69588;SDS011;56792;50.644;17.984;2022-09-21T02:47:09;13.50;;;7.90;;
69588;SDS011;56792;50.644;17.984;2022-09-21T02:49:46;13.40;;;7.70;;
69588;SDS011;56792;50.644;17.984;2022-09-21T02:52:20;13.00;;;7.40;;
69588;SDS011;56792;50.644;17.984;2022-09-21T02:54:52;18.80;;;9.30;;
69588;SDS011;56792;50.644;17.984;2022-09-21T02:57:24;18.50;;;9.20;;
69588;SDS011;56792;50.644;17.984;2022-09-21T02:59:53;14.20;;;8.00;;
69588;SDS011;56792;50.644;17.984;2022-09-21T03:02:23;13.60;;;8.90;;
69588;SDS011;56792;50.644;17.984;2022-09-21T03:05:02;14.60;;;7.60;;
69588;SDS011;56792;50.644;17.984;2022-09-21T03:07:32;14.20;;;7.80;;
69588;SDS011;56792;50.644;17.984;2022-09-21T03:10:02;13.80;;;7.70;;
69588;SDS011;56792;50.644;17.984;2022-09-21T03:12:33;14.70;;;8.50;;
69588;SDS011;56792;50.644;17.984;2022-09-21T03:15:04;12.90;;;7.10;;
69588;SDS011;56792;50.644;17.984;2022-09-21T03:17:34;13.70;;;8.00;;
69588;SDS011;56792;50.644;17.984;2022-09-21T03:20:05;15.80;;;8.20;;
69588;SDS011;56792;50.644;17.984;2022-09-21T03:22:35;12.60;;;8.00;;
69588;SDS011;56792;50.644;17.984;2022-09-21T03:25:07;13.80;;;8.40;;
69588;SDS011;56792;50.644;17.984;2022-09-21T03:27:39;14.60;;;8.20;;
69588;SDS011;56792;50.644;17.984;2022-09-21T03:30:11;13.40;;;8.80;;
69588;SDS011;56792;50.644;17.984;2022-09-21T03:32:41;16.10;;;8.80;;
69588;SDS011;56792;50.644;17.984;2022-09-21T03:35:10;16.40;;;9.40;;
69588;SDS011;56792;50.644;17.984;2022-09-21T03:37:39;15.90;;;8.70;;
69588;SDS011;56792;50.644;17.984;2022-09-21T03:40:10;17.60;;;9.30;;
69588;SDS011;56792;50.644;17.984;2022-09-21T03:42:40;15.30;;;8.50;;
69588;SDS011;56792;50.644;17.984;2022-09-21T03:45:12;15.90;;;8.80;;
69588;SDS011;56792;50.644;17.984;2022-09-21T03:47:41;18.60;;;10.40;;
69588;SDS011;56792;50.644;17.984;2022-09-21T03:50:11;16.90;;;9.90;;
69588;SDS011;56792;50.644;17.984;2022-09-21T03:52:41;17.10;;;10.20;;
69588;SDS011;56792;50.644;17.984;2022-09-21T03:55:10;18.60;;;11.20;;
69588;SDS011;56792;50.644;17.984;2022-09-21T03:57:40;22.50;;;13.00;;
69588;SDS011;56792;50.644;17.984;2022-09-21T04:00:11;19.90;;;11.50;;
69588;SDS011;56792;50.644;17.984;2022-09-21T04:02:42;23.60;;;13.50;;
69588;SDS011;56792;50.644;17.984;2022-09-21T04:05:13;22.10;;;12.70;;
69588;SDS011;56792;50.644;17.984;2022-09-21T04:07:44;20.10;;;12.10;;
69588;SDS011;56792;50.644;17.984;2022-09-21T04:10:15;20.10;;;11.90;;
69588;SDS011;56792;50.644;17.984;2022-09-21T04:12:48;18.90;;;11.00;;
69588;SDS011;56792;50.644;17.984;2022-09-21T04:15:18;17.80;;;10.90;;
69588;SDS011;56792;50.644;17.984;2022-09-21T04:17:50;16.70;;;8.70;;
69588;SDS011;56792;50.644;17.984;2022-09-21T04:20:21;15.00;;;8.20;;
69588;SDS011;56792;50.644;17.984;2022-09-21T04:22:50;15.50;;;8.10;;
69588;SDS011;56792;50.644;17.984;2022-09-21T04:25:20;12.20;;;6.90;;
69588;SDS011;56792;50.644;17.984;2022-09-21T04:27:49;14.90;;;7.60;;
69588;SDS011;56792;50.644;17.984;2022-09-21T04:30:20;14.10;;;7.70;;
69588;SDS011;56792;50.644;17.984;2022-09-21T04:32:49;14.00;;;7.60;;
69588;SDS011;56792;50.644;17.984;2022-09-21T04:35:19;13.90;;;7.90;;
69588;SDS011;56792;50.644;17.984;2022-09-21T04:37:49;12.40;;;6.90;;
69588;SDS011;56792;50.644;17.984;2022-09-21T04:40:21;12.90;;;6.70;;
69588;SDS011;56792;50.644;17.984;2022-09-21T04:42:52;14.50;;;7.00;;
69588;SDS011;56792;50.644;17.984;2022-09-21T04:45:22;10.60;;;6.60;;
69588;SDS011;56792;50.644;17.984;2022-09-21T04:47:52;11.00;;;6.30;;
69588;SDS011;56792;50.644;17.984;2022-09-21T04:50:22;14.30;;;7.00;;
69588;SDS011;56792;50.644;17.984;2022-09-21T04:53:03;11.10;;;6.40;;
69588;SDS011;56792;50.644;17.984;2022-09-21T04:55:33;13.50;;;8.20;;
69588;SDS011;56792;50.644;17.984;2022-09-21T04:58:02;13.10;;;7.20;;
69588;SDS011;56792;50.644;17.984;2022-09-21T05:00:32;11.60;;;7.20;;
69588;SDS011;56792;50.644;17.984;2022-09-21T05:03:01;14.10;;;7.70;;
69588;SDS011;56792;50.644;17.984;2022-09-21T05:05:31;13.90;;;7.80;;
69588;SDS011;56792;50.644;17.984;2022-09-21T05:08:02;15.00;;;7.80;;
69588;SDS011;56792;50.644;17.984;2022-09-21T05:10:31;15.60;;;8.40;;
69588;SDS011;56792;50.644;17.984;2022-09-21T05:13:01;13.90;;;8.00;;
69588;SDS011;56792;50.644;17.984;2022-09-21T05:15:30;12.90;;;7.30;;
69588;SDS011;56792;50.644;17.984;2022-09-21T05:18:00;15.10;;;7.50;;
69588;SDS011;56792;50.644;17.984;2022-09-21T05:20:29;13.40;;;7.00;;
69588;SDS011;56792;50.644;17.984;2022-09-21T05:23:00;13.00;;;7.40;;
69588;SDS011;56792;50.644;17.984;2022-09-21T05:25:30;12.70;;;6.80;;
69588;SDS011;56792;50.644;17.984;2022-09-21T05:28:01;11.40;;;6.50;;
69588;SDS011;56792;50.644;17.984;2022-09-21T05:30:32;15.80;;;7.50;;
69588;SDS011;56792;50.644;17.984;2022-09-21T05:33:04;13.10;;;6.90;;
69588;SDS011;56792;50.644;17.984;2022-09-21T05:35:40;12.10;;;7.50;;
69588;SDS011;56792;50.644;17.984;2022-09-21T05:38:17;12.10;;;6.30;;
69588;SDS011;56792;50.644;17.984;2022-09-21T05:40:49;13.90;;;7.80;;
69588;SDS011;56792;50.644;17.984;2022-09-21T05:43:21;15.20;;;7.40;;
69588;SDS011;56792;50.644;17.984;2022-09-21T05:45:55;13.60;;;7.60;;
69588;SDS011;56792;50.644;17.984;2022-09-21T05:48:35;14.80;;;7.80;;
69588;SDS011;56792;50.644;17.984;2022-09-21T05:51:16;16.70;;;8.90;;
69588;SDS011;56792;50.644;17.984;2022-09-21T05:54:01;22.40;;;9.70;;
69588;SDS011;56792;50.644;17.984;2022-09-21T05:56:41;20.30;;;9.90;;
69588;SDS011;56792;50.644;17.984;2022-09-21T05:59:35;24.50;;;10.80;;
69588;SDS011;56792;50.644;17.984;2022-09-21T06:02:19;25.10;;;10.50;;
69588;SDS011;56792;50.644;17.984;2022-09-21T06:05:01;23.50;;;10.20;;
69588;SDS011;56792;50.644;17.984;2022-09-21T06:07:37;25.10;;;10.00;;
69588;SDS011;56792;50.644;17.984;2022-09-21T06:10:10;21.30;;;9.20;;
69588;SDS011;56792;50.644;17.984;2022-09-21T06:12:42;24.40;;;10.00;;
69588;SDS011;56792;50.644;17.984;2022-09-21T06:15:15;23.60;;;9.70;;
69588;SDS011;56792;50.644;17.984;2022-09-21T06:17:44;21.90;;;9.00;;
69588;SDS011;56792;50.644;17.984;2022-09-21T06:20:14;16.70;;;8.00;;
69588;SDS011;56792;50.644;17.984;2022-09-21T06:22:44;16.50;;;7.90;;
69588;SDS011;56792;50.644;17.984;2022-09-21T06:25:14;19.90;;;8.30;;
69588;SDS011;56792;50.644;17.984;2022-09-21T06:27:45;20.10;;;8.50;;
69588;SDS011;56792;50.644;17.984;2022-09-21T06:30:16;20.00;;;8.40;;
69588;SDS011;56792;50.644;17.984;2022-09-21T06:32:46;16.70;;;8.20;;
69588;SDS011;56792;50.644;17.984;2022-09-21T06:35:16;15.70;;;7.80;;
69588;SDS011;56792;50.644;17.984;2022-09-21T06:37:46;18.40;;;7.70;;
69588;SDS011;56792;50.644;17.984;2022-09-21T06:40:16;14.80;;;8.00;;
69588;SDS011;56792;50.644;17.984;2022-09-21T06:42:45;16.10;;;8.10;;
69588;SDS011;56792;50.644;17.984;2022-09-21T06:45:15;16.10;;;8.20;;
69588;SDS011;56792;50.644;17.984;2022-09-21T06:47:47;16.80;;;7.90;;
69588;SDS011;56792;50.644;17.984;2022-09-21T06:50:16;15.40;;;8.00;;
69588;SDS011;56792;50.644;17.984;2022-09-21T06:52:46;16.70;;;8.80;;
69588;SDS011;56792;50.644;17.984;2022-09-21T06:55:16;16.90;;;8.40;;
69588;SDS011;56792;50.644;17.984;2022-09-21T06:57:46;15.40;;;7.90;;
69588;SDS011;56792;50.644;17.984;2022-09-21T07:00:16;16.50;;;8.50;;
69588;SDS011;56792;50.644;17.984;2022-09-21T07:02:46;16.70;;;8.70;;
69588;SDS011;56792;50.644;17.984;2022-09-21T07:05:16;15.50;;;7.80;;
69588;SDS011;56792;50.644;17.984;2022-09-21T07:07:45;16.50;;;8.00;;
69588;SDS011;56792;50.644;17.984;2022-09-21T07:10:15;15.40;;;8.30;;
69588;SDS011;56792;50.644;17.984;2022-09-21T07:12:45;16.40;;;8.50;;
69588;SDS011;56792;50.644;17.984;2022-09-21T07:15:16;17.90;;;9.50;;
69588;SDS011;56792;50.644;17.984;2022-09-21T07:17:47;18.50;;;9.50;;
69588;SDS011;56792;50.644;17.984;2022-09-21T07:20:17;16.80;;;10.00;;
69588;SDS011;56792;50.644;17.984;2022-09-21T07:22:46;17.60;;;9.80;;
69588;SDS011;56792;50.644;17.984;2022-09-21T07:25:16;16.60;;;9.50;;
69588;SDS011;56792;50.644;17.984;2022-09-21T07:27:46;17.10;;;9.80;;
69588;SDS011;56792;50.644;17.984;2022-09-21T07:30:15;17.70;;;9.90;;
69588;SDS011;56792;50.644;17.984;2022-09-21T07:32:45;16.60;;;8.80;;
69588;SDS011;56792;50.644;17.984;2022-09-21T07:35:15;17.90;;;9.70;;
69588;SDS011;56792;50.644;17.984;2022-09-21T07:37:45;17.40;;;10.20;;
69588;SDS011;56792;50.644;17.984;2022-09-21T07:40:16;19.10;;;10.10;;
69588;SDS011;56792;50.644;17.984;2022-09-21T07:42:45;18.70;;;10.50;;
69588;SDS011;56792;50.644;17.984;2022-09-21T07:45:15;16.50;;;9.60;;
69588;SDS011;56792;50.644;17.984;2022-09-21T07:47:44;19.30;;;9.90;;
69588;SDS011;56792;50.644;17.984;2022-09-21T07:50:14;19.60;;;10.40;;
69588;SDS011;56792;50.644;17.984;2022-09-21T07:52:44;16.80;;;9.40;;
69588;SDS011;56792;50.644;17.984;2022-09-21T07:55:14;19.50;;;10.50;;
69588;SDS011;56792;50.644;17.984;2022-09-21T07:57:44;16.00;;;9.70;;
69588;SDS011;56792;50.644;17.984;2022-09-21T08:00:35;17.90;;;9.40;;
69588;SDS011;56792;50.644;17.984;2022-09-21T08:03:05;16.50;;;9.60;;
69588;SDS011;56792;50.644;17.984;2022-09-21T08:05:34;18.00;;;9.50;;
69588;SDS011;56792;50.644;17.984;2022-09-21T08:08:04;16.00;;;9.00;;
69588;SDS011;56792;50.644;17.984;2022-09-21T08:10:33;15.90;;;9.70;;
69588;SDS011;56792;50.644;17.984;2022-09-21T08:13:03;15.00;;;8.90;;
69588;SDS011;56792;50.644;17.984;2022-09-21T08:15:33;19.00;;;10.40;;
69588;SDS011;56792;50.644;17.984;2022-09-21T08:18:05;18.00;;;10.30;;
69588;SDS011;56792;50.644;17.984;2022-09-21T08:20:35;18.40;;;9.90;;
69588;SDS011;56792;50.644;17.984;2022-09-21T08:23:05;16.10;;;9.90;;
69588;SDS011;56792;50.644;17.984;2022-09-21T08:25:35;15.00;;;9.00;;
69588;SDS011;56792;50.644;17.984;2022-09-21T08:28:04;15.70;;;8.30;;
69588;SDS011;56792;50.644;17.984;2022-09-21T08:30:34;13.80;;;7.80;;
69588;SDS011;56792;50.644;17.984;2022-09-21T08:33:03;16.40;;;8.80;;
69588;SDS011;56792;50.644;17.984;2022-09-21T08:35:33;14.00;;;8.30;;
69588;SDS011;56792;50.644;17.984;2022-09-21T08:38:03;16.20;;;8.70;;
69588;SDS011;56792;50.644;17.984;2022-09-21T08:40:33;16.40;;;8.40;;
69588;SDS011;56792;50.644;17.984;2022-09-21T08:43:06;17.60;;;11.10;;
69588;SDS011;56792;50.644;17.984;2022-09-21T08:45:41;15.70;;;9.00;;
69588;SDS011;56792;50.644;17.984;2022-09-21T08:48:14;14.50;;;10.10;;
69588;SDS011;56792;50.644;17.984;2022-09-21T08:50:49;13.40;;;8.60;;
69588;SDS011;56792;50.644;17.984;2022-09-21T08:53:24;14.20;;;8.50;;
69588;SDS011;56792;50.644;17.984;2022-09-21T08:55:59;14.00;;;9.00;;
69588;SDS011;56792;50.644;17.984;2022-09-21T08:58:31;14.00;;;9.30;;
69588;SDS011;56792;50.644;17.984;2022-09-21T09:01:20;13.80;;;8.90;;
69588;SDS011;56792;50.644;17.984;2022-09-21T09:04:27;13.70;;;7.40;;
69588;SDS011;56792;50.644;17.984;2022-09-21T09:07:27;11.90;;;7.20;;
69588;SDS011;56792;50.644;17.984;2022-09-21T09:10:21;11.90;;;6.80;;
69588;SDS011;56792;50.644;17.984;2022-09-21T09:13:19;11.10;;;6.80;;
69588;SDS011;56792;50.644;17.984;2022-09-21T09:16:09;13.40;;;7.90;;
69588;SDS011;56792;50.644;17.984;2022-09-21T09:18:50;12.50;;;8.30;;
69588;SDS011;56792;50.644;17.984;2022-09-21T09:21:24;11.60;;;8.00;;
69588;SDS011;56792;50.644;17.984;2022-09-21T09:24:00;11.00;;;7.40;;
69588;SDS011;56792;50.644;17.984;2022-09-21T09:26:38;12.60;;;8.00;;
69588;SDS011;56792;50.644;17.984;2022-09-21T09:29:17;10.20;;;6.70;;
69588;SDS011;56792;50.644;17.984;2022-09-21T09:31:52;9.60;;;5.70;;
69588;SDS011;56792;50.644;17.984;2022-09-21T09:34:26;10.40;;;6.70;;
69588;SDS011;56792;50.644;17.984;2022-09-21T09:37:04;9.30;;;6.30;;
69588;SDS011;56792;50.644;17.984;2022-09-21T09:39:40;9.20;;;5.90;;
69588;SDS011;56792;50.644;17.984;2022-09-21T09:42:33;9.90;;;6.80;;
69588;SDS011;56792;50.644;17.984;2022-09-21T09:45:22;9.20;;;6.00;;
69588;SDS011;56792;50.644;17.984;2022-09-21T09:48:18;9.30;;;5.90;;
69588;SDS011;56792;50.644;17.984;2022-09-21T09:50:55;8.60;;;5.10;;
69588;SDS011;56792;50.644;17.984;2022-09-21T09:53:26;8.70;;;5.50;;
69588;SDS011;56792;50.644;17.984;2022-09-21T09:55:57;9.80;;;5.20;;
69588;SDS011;56792;50.644;17.984;2022-09-21T09:58:36;7.70;;;5.60;;
69588;SDS011;56792;50.644;17.984;2022-09-21T10:01:38;9.50;;;5.30;;
69588;SDS011;56792;50.644;17.984;2022-09-21T10:04:11;7.90;;;5.30;;
69588;SDS011;56792;50.644;17.984;2022-09-21T10:06:42;8.00;;;4.80;;
69588;SDS011;56792;50.644;17.984;2022-09-21T10:09:24;7.30;;;4.60;;
69588;SDS011;56792;50.644;17.984;2022-09-21T10:11:56;8.90;;;5.00;;
69588;SDS011;56792;50.644;17.984;2022-09-21T10:14:30;6.80;;;4.20;;
69588;SDS011;56792;50.644;17.984;2022-09-21T10:17:05;7.80;;;4.60;;
69588;SDS011;56792;50.644;17.984;2022-09-21T10:19:35;8.90;;;5.20;;
69588;SDS011;56792;50.644;17.984;2022-09-21T10:22:05;6.90;;;5.00;;
69588;SDS011;56792;50.644;17.984;2022-09-21T10:24:48;6.90;;;4.80;;
69588;SDS011;56792;50.644;17.984;2022-09-21T10:27:23;7.30;;;4.30;;
69588;SDS011;56792;50.644;17.984;2022-09-21T10:29:54;6.70;;;4.50;;
69588;SDS011;56792;50.644;17.984;2022-09-21T10:32:25;6.70;;;4.70;;
69588;SDS011;56792;50.644;17.984;2022-09-21T10:35:17;7.00;;;4.60;;
69588;SDS011;56792;50.644;17.984;2022-09-21T10:37:47;6.40;;;4.40;;
69588;SDS011;56792;50.644;17.984;2022-09-21T10:40:37;7.90;;;4.10;;
69588;SDS011;56792;50.644;17.984;2022-09-21T10:43:22;7.20;;;5.10;;
69588;SDS011;56792;50.644;17.984;2022-09-21T10:45:56;5.80;;;3.50;;
69588;SDS011;56792;50.644;17.984;2022-09-21T10:48:27;8.10;;;5.60;;
69588;SDS011;56792;50.644;17.984;2022-09-21T10:50:57;6.90;;;3.80;;
69588;SDS011;56792;50.644;17.984;2022-09-21T10:53:28;5.60;;;3.40;;
69588;SDS011;56792;50.644;17.984;2022-09-21T10:56:02;5.90;;;3.60;;
69588;SDS011;56792;50.644;17.984;2022-09-21T10:58:34;7.60;;;3.30;;
69588;SDS011;56792;50.644;17.984;2022-09-21T11:01:12;5.80;;;3.20;;
69588;SDS011;56792;50.644;17.984;2022-09-21T11:03:53;5.90;;;3.90;;
69588;SDS011;56792;50.644;17.984;2022-09-21T11:06:29;5.70;;;3.80;;
69588;SDS011;56792;50.644;17.984;2022-09-21T11:09:07;5.40;;;3.50;;
69588;SDS011;56792;50.644;17.984;2022-09-21T11:11:48;6.40;;;3.80;;
69588;SDS011;56792;50.644;17.984;2022-09-21T11:14:33;4.80;;;3.50;;
69588;SDS011;56792;50.644;17.984;2022-09-21T11:17:12;4.80;;;3.40;;
69588;SDS011;56792;50.644;17.984;2022-09-21T11:19:51;4.90;;;3.60;;
69588;SDS011;56792;50.644;17.984;2022-09-21T11:22:33;4.80;;;2.80;;
69588;SDS011;56792;50.644;17.984;2022-09-21T11:25:22;5.80;;;3.00;;
69588;SDS011;56792;50.644;17.984;2022-09-21T11:28:03;4.90;;;3.10;;
69588;SDS011;56792;50.644;17.984;2022-09-21T11:31:02;6.10;;;2.90;;
69588;SDS011;56792;50.644;17.984;2022-09-21T11:37:12;5.50;;;2.60;;
69588;SDS011;56792;50.644;17.984;2022-09-21T11:40:05;4.60;;;2.50;;
69588;SDS011;56792;50.644;17.984;2022-09-21T11:43:12;4.80;;;3.50;;
69588;SDS011;56792;50.644;17.984;2022-09-21T11:45:59;5.90;;;3.20;;
69588;SDS011;56792;50.644;17.984;2022-09-21T11:48:47;6.00;;;3.20;;
69588;SDS011;56792;50.644;17.984;2022-09-21T11:51:36;5.10;;;2.90;;
69588;SDS011;56792;50.644;17.984;2022-09-21T11:54:35;5.60;;;3.30;;
69588;SDS011;56792;50.644;17.984;2022-09-21T11:57:28;4.60;;;2.80;;
69588;SDS011;56792;50.644;17.984;2022-09-21T12:00:12;5.60;;;2.80;;
69588;SDS011;56792;50.644;17.984;2022-09-21T12:03:09;5.60;;;2.90;;
69588;SDS011;56792;50.644;17.984;2022-09-21T12:06:13;4.00;;;2.40;;
69588;SDS011;56792;50.644;17.984;2022-09-21T12:12:10;6.00;;;2.60;;
69588;SDS011;56792;50.644;17.984;2022-09-21T12:14:49;5.10;;;2.90;;
69588;SDS011;56792;50.644;17.984;2022-09-21T12:17:31;4.90;;;3.00;;
69588;SDS011;56792;50.644;17.984;2022-09-21T12:20:14;5.40;;;3.50;;
69588;SDS011;56792;50.644;17.984;2022-09-21T12:22:55;11.60;;;7.70;;
69588;SDS011;56792;50.644;17.984;2022-09-21T12:25:32;14.20;;;7.80;;
69588;SDS011;56792;50.644;17.984;2022-09-21T12:28:11;9.60;;;5.40;;
69588;SDS011;56792;50.644;17.984;2022-09-21T12:30:49;5.10;;;2.70;;
69588;SDS011;56792;50.644;17.984;2022-09-21T12:33:29;5.30;;;2.40;;
69588;SDS011;56792;50.644;17.984;2022-09-21T12:36:09;4.50;;;2.80;;
69588;SDS011;56792;50.644;17.984;2022-09-21T12:38:47;4.70;;;2.70;;
69588;SDS011;56792;50.644;17.984;2022-09-21T12:41:28;5.40;;;3.60;;
69588;SDS011;56792;50.644;17.984;2022-09-21T12:44:11;6.50;;;4.10;;
69588;SDS011;56792;50.644;17.984;2022-09-21T12:46:47;5.40;;;2.90;;
69588;SDS011;56792;50.644;17.984;2022-09-21T12:49:26;6.10;;;4.10;;
69588;SDS011;56792;50.644;17.984;2022-09-21T12:52:01;4.50;;;3.20;;
69588;SDS011;56792;50.644;17.984;2022-09-21T12:54:39;4.30;;;3.60;;
69588;SDS011;56792;50.644;17.984;2022-09-21T12:57:21;6.30;;;3.50;;
69588;SDS011;56792;50.644;17.984;2022-09-21T13:00:03;5.30;;;3.20;;
69588;SDS011;56792;50.644;17.984;2022-09-21T13:02:41;6.10;;;4.10;;
69588;SDS011;56792;50.644;17.984;2022-09-21T13:05:22;4.90;;;2.90;;
69588;SDS011;56792;50.644;17.984;2022-09-21T13:08:09;3.20;;;1.80;;
69588;SDS011;56792;50.644;17.984;2022-09-21T13:10:46;3.80;;;2.80;;
69588;SDS011;56792;50.644;17.984;2022-09-21T13:13:28;4.30;;;2.60;;
69588;SDS011;56792;50.644;17.984;2022-09-21T13:16:03;4.00;;;2.60;;
69588;SDS011;56792;50.644;17.984;2022-09-21T13:18:35;5.10;;;2.70;;
69588;SDS011;56792;50.644;17.984;2022-09-21T13:21:17;4.30;;;2.90;;
69588;SDS011;56792;50.644;17.984;2022-09-21T13:23:55;5.10;;;2.20;;
69588;SDS011;56792;50.644;17.984;2022-09-21T13:26:34;3.90;;;1.80;;
69588;SDS011;56792;50.644;17.984;2022-09-21T13:29:27;3.70;;;2.00;;
69588;SDS011;56792;50.644;17.984;2022-09-21T13:32:01;8.60;;;6.30;;
69588;SDS011;56792;50.644;17.984;2022-09-21T13:34:47;4.30;;;1.90;;
69588;SDS011;56792;50.644;17.984;2022-09-21T13:37:27;4.20;;;2.10;;
69588;SDS011;56792;50.644;17.984;2022-09-21T13:43:20;13.10;;;7.40;;
69588;SDS011;56792;50.644;17.984;2022-09-21T13:45:55;12.70;;;7.40;;
69588;SDS011;56792;50.644;17.984;2022-09-21T13:48:28;11.10;;;5.50;;
69588;SDS011;56792;50.644;17.984;2022-09-21T13:51:09;12.60;;;6.50;;
69588;SDS011;56792;50.644;17.984;2022-09-21T13:53:47;5.60;;;2.80;;
69588;SDS011;56792;50.644;17.984;2022-09-21T13:56:27;4.00;;;1.70;;
69588;SDS011;56792;50.644;17.984;2022-09-21T13:58:59;4.90;;;1.70;;
69588;SDS011;56792;50.644;17.984;2022-09-21T14:01:32;3.60;;;1.80;;
69588;SDS011;56792;50.644;17.984;2022-09-21T14:04:21;3.90;;;1.70;;
69588;SDS011;56792;50.644;17.984;2022-09-21T14:06:55;3.80;;;2.00;;
69588;SDS011;56792;50.644;17.984;2022-09-21T14:09:33;3.30;;;1.70;;
69588;SDS011;56792;50.644;17.984;2022-09-21T14:12:16;5.80;;;2.10;;
69588;SDS011;56792;50.644;17.984;2022-09-21T14:15:17;6.60;;;3.10;;
69588;SDS011;56792;50.644;17.984;2022-09-21T14:18:35;3.90;;;1.80;;
69588;SDS011;56792;50.644;17.984;2022-09-21T14:21:16;9.40;;;5.80;;
69588;SDS011;56792;50.644;17.984;2022-09-21T14:24:08;7.40;;;3.40;;
69588;SDS011;56792;50.644;17.984;2022-09-21T14:26:52;4.90;;;2.70;;
69588;SDS011;56792;50.644;17.984;2022-09-21T14:29:29;5.30;;;2.80;;
69588;SDS011;56792;50.644;17.984;2022-09-21T14:32:15;6.30;;;2.60;;
69588;SDS011;56792;50.644;17.984;2022-09-21T14:34:48;4.50;;;2.40;;
69588;SDS011;56792;50.644;17.984;2022-09-21T14:37:28;4.20;;;1.70;;
69588;SDS011;56792;50.644;17.984;2022-09-21T14:40:03;3.70;;;1.70;;
69588;SDS011;56792;50.644;17.984;2022-09-21T14:42:44;3.60;;;1.40;;
69588;SDS011;56792;50.644;17.984;2022-09-21T14:45:16;4.90;;;2.20;;
69588;SDS011;56792;50.644;17.984;2022-09-21T14:48:04;3.60;;;1.80;;
69588;SDS011;56792;50.644;17.984;2022-09-21T14:50:44;3.90;;;1.70;;
69588;SDS011;56792;50.644;17.984;2022-09-21T14:53:28;3.70;;;1.60;;
69588;SDS011;56792;50.644;17.984;2022-09-21T14:56:23;3.80;;;1.80;;
69588;SDS011;56792;50.644;17.984;2022-09-21T14:59:27;5.60;;;2.00;;
69588;SDS011;56792;50.644;17.984;2022-09-21T15:02:15;5.70;;;2.00;;
69588;SDS011;56792;50.644;17.984;2022-09-21T15:05:12;8.40;;;3.20;;
69588;SDS011;56792;50.644;17.984;2022-09-21T15:08:04;13.70;;;5.70;;
69588;SDS011;56792;50.644;17.984;2022-09-21T15:11:07;16.40;;;6.50;;
69588;SDS011;56792;50.644;17.984;2022-09-21T15:13:54;13.50;;;6.10;;
69588;SDS011;56792;50.644;17.984;2022-09-21T15:16:41;12.30;;;5.40;;
69588;SDS011;56792;50.644;17.984;2022-09-21T15:19:20;11.10;;;7.00;;
69588;SDS011;56792;50.644;17.984;2022-09-21T15:21:52;8.20;;;3.90;;
69588;SDS011;56792;50.644;17.984;2022-09-21T15:24:27;9.00;;;4.30;;
69588;SDS011;56792;50.644;17.984;2022-09-21T15:27:06;6.40;;;3.60;;
69588;SDS011;56792;50.644;17.984;2022-09-21T15:29:41;9.40;;;4.60;;
69588;SDS011;56792;50.644;17.984;2022-09-21T15:32:31;22.20;;;10.10;;
69588;SDS011;56792;50.644;17.984;2022-09-21T15:35:14;22.40;;;12.20;;
69588;SDS011;56792;50.644;17.984;2022-09-21T15:37:47;14.00;;;7.70;;
69588;SDS011;56792;50.644;17.984;2022-09-21T15:40:21;14.20;;;6.10;;